createdAt,value
2023-01-29T00:01:57.775Z,0.47
2023-01-29T00:04:24.103Z,0.35
2023-01-29T00:06:50.419Z,0.40
2023-01-29T00:09:16.711Z,0.34
2023-01-29T00:11:42.999Z,0.28
2023-01-29T00:14:09.299Z,0.42
2023-01-29T00:16:35.589Z,0.30
2023-01-29T00:19:01.901Z,0.30
2023-01-29T00:21:28.224Z,0.37
2023-01-29T00:23:54.583Z,0.39
2023-01-29T00:26:20.929Z,0.48
2023-01-29T00:28:47.309Z,0.42
2023-01-29T00:31:13.640Z,0.39
2023-01-29T00:33:39.964Z,0.35
2023-01-29T00:36:06.267Z,0.39
2023-01-29T00:38:34.889Z,0.42
2023-01-29T00:41:01.183Z,0.43
2023-01-29T00:43:27.506Z,0.33
2023-01-29T00:45:53.787Z,0.43
2023-01-29T00:48:20.071Z,0.46
2023-01-29T00:50:46.376Z,0.44
2023-01-29T00:53:12.671Z,0.34
2023-01-29T00:55:38.966Z,0.41
2023-01-29T00:58:05.277Z,0.36
2023-01-29T01:00:31.579Z,0.41
2023-01-29T01:02:57.889Z,0.37
2023-01-29T01:05:24.625Z,0.38
2023-01-29T01:07:50.933Z,0.37
2023-01-29T01:10:17.546Z,0.36
2023-01-29T01:12:44.102Z,0.35
2023-01-29T01:15:10.391Z,0.37
2023-01-29T01:17:36.707Z,0.30
2023-01-29T01:20:03.018Z,0.29
2023-01-29T01:22:29.318Z,0.34
2023-01-29T01:24:55.701Z,0.27
2023-01-29T01:27:22.010Z,0.31
2023-01-29T01:29:48.282Z,0.34
2023-01-29T01:32:14.573Z,0.40
2023-01-29T01:34:40.872Z,0.40
2023-01-29T01:37:07.166Z,0.54
2023-01-29T01:39:33.461Z,0.41
2023-01-29T01:42:05.961Z,0.40
2023-01-29T01:44:32.246Z,0.34
2023-01-29T01:46:58.544Z,0.34
2023-01-29T01:49:24.842Z,0.37
2023-01-29T01:51:51.128Z,0.43
2023-01-29T01:54:17.412Z,0.39
2023-01-29T01:56:43.714Z,0.47
2023-01-29T01:59:09.997Z,0.31
2023-01-29T02:01:36.281Z,0.34
2023-01-29T02:04:02.607Z,0.37
2023-01-29T02:06:28.897Z,0.33
2023-01-29T02:08:55.188Z,0.27
2023-01-29T02:11:21.521Z,0.31
2023-01-29T02:13:48.108Z,0.30
2023-01-29T02:16:14.403Z,0.30
2023-01-29T02:18:40.742Z,0.28
2023-01-29T02:21:07.032Z,0.31
2023-01-29T02:23:33.343Z,0.25
2023-01-29T02:25:59.669Z,0.22
2023-01-29T02:28:25.969Z,0.14
2023-01-29T02:30:52.274Z,0.10
2023-01-29T02:33:18.587Z,0.05
2023-01-29T02:35:44.876Z,0.18
2023-01-29T02:38:11.156Z,0.18
2023-01-29T02:40:37.463Z,0.22
2023-01-29T02:43:03.747Z,0.02
2023-01-29T02:45:30.068Z,0.06
2023-01-29T02:47:56.365Z,0.10
2023-01-29T02:50:22.656Z,0.02
2023-01-29T02:52:48.954Z,0.06
2023-01-29T02:55:15.270Z,0.04
2023-01-29T02:57:41.557Z,0.06
2023-01-29T03:00:07.843Z,0.06
2023-01-29T03:02:34.228Z,0.13
2023-01-29T03:05:00.624Z,0.10
2023-01-29T03:07:26.905Z,0.10
2023-01-29T03:09:53.216Z,0.16
2023-01-29T03:12:20.229Z,0.30
2023-01-29T03:14:46.671Z,0.24
2023-01-29T03:17:13.171Z,0.12
2023-01-29T03:19:39.493Z,0.11
2023-01-29T03:22:05.913Z,0.29
2023-01-29T03:24:32.256Z,0.18
2023-01-29T03:26:58.614Z,0.18
2023-01-29T03:29:24.915Z,0.11
2023-01-29T03:31:51.295Z,0.08
2023-01-29T03:34:17.586Z,0.17
2023-01-29T03:36:43.869Z,0.06
2023-01-29T03:39:10.168Z,0.26
2023-01-29T03:41:39.577Z,0.14
2023-01-29T03:44:05.857Z,0.11
2023-01-29T03:46:32.161Z,-0.05
2023-01-29T03:48:58.596Z,-0.02
2023-01-29T03:51:24.899Z,-0.05
2023-01-29T03:53:51.212Z,0.02
2023-01-29T03:56:17.499Z,-0.03
2023-01-29T03:58:43.795Z,0.11
2023-01-29T04:01:10.158Z,-0.03
2023-01-29T04:03:36.493Z,-0.12
2023-01-29T04:06:02.788Z,-0.05
2023-01-29T04:08:29.099Z,-0.09
2023-01-29T04:10:55.378Z,-0.09
2023-01-29T04:13:21.648Z,-0.08
2023-01-29T04:15:47.978Z,0.08
2023-01-29T04:18:14.275Z,0.09
2023-01-29T04:20:40.582Z,0.07
2023-01-29T04:23:06.928Z,-0.05
2023-01-29T04:25:33.206Z,-0.12
2023-01-29T04:27:59.485Z,-0.10
2023-01-29T04:30:25.780Z,-0.11
2023-01-29T04:32:52.054Z,-0.22
2023-01-29T04:35:18.329Z,-0.13
2023-01-29T04:37:44.687Z,-0.06
2023-01-29T04:40:10.994Z,-0.09
2023-01-29T04:42:37.274Z,-0.07
2023-01-29T04:45:03.577Z,-0.07
2023-01-29T04:47:29.892Z,0.01
2023-01-29T04:49:56.199Z,-0.01
2023-01-29T04:52:22.516Z,-0.05
2023-01-29T04:54:48.813Z,0.00
2023-01-29T04:57:15.106Z,-0.03
2023-01-29T04:59:41.410Z,-0.08
2023-01-29T05:02:07.711Z,-0.03
2023-01-29T05:04:34.017Z,-0.03
2023-01-29T05:07:00.332Z,0.05
2023-01-29T05:09:26.619Z,0.02
2023-01-29T05:11:52.903Z,-0.01
2023-01-29T05:14:19.205Z,-0.05
2023-01-29T05:16:45.487Z,0.00
2023-01-29T05:19:12.701Z,0.03
2023-01-29T05:21:41.057Z,-0.06
2023-01-29T05:24:07.511Z,0.10
2023-01-29T05:26:33.832Z,-0.07
2023-01-29T05:29:00.153Z,-0.11
2023-01-29T05:31:26.544Z,-0.16
2023-01-29T05:33:52.913Z,-0.11
2023-01-29T05:36:19.227Z,-0.18
2023-01-29T05:38:45.519Z,-0.11
2023-01-29T05:41:11.802Z,-0.09
2023-01-29T05:43:38.096Z,-0.08
2023-01-29T05:46:04.384Z,-0.11
2023-01-29T05:48:30.682Z,-0.19
2023-01-29T05:50:56.984Z,-0.19
2023-01-29T05:53:23.291Z,-0.12
2023-01-29T05:55:49.586Z,-0.07
2023-01-29T05:58:15.889Z,-0.06
2023-01-29T06:00:42.172Z,-0.03
2023-01-29T06:03:08.530Z,0.03
2023-01-29T06:05:34.867Z,-0.02
2023-01-29T06:08:01.148Z,0.09
2023-01-29T06:10:27.456Z,-0.12
2023-01-29T06:12:53.808Z,-0.13
2023-01-29T06:15:20.097Z,0.01
2023-01-29T06:17:46.439Z,-0.02
2023-01-29T06:20:12.769Z,0.02
2023-01-29T06:22:39.072Z,-0.04
2023-01-29T06:25:05.371Z,-0.11
2023-01-29T06:27:31.692Z,-0.11
2023-01-29T06:29:57.974Z,-0.15
2023-01-29T06:32:24.293Z,-0.13
2023-01-29T06:34:50.673Z,0.05
2023-01-29T06:37:16.966Z,-0.11
2023-01-29T06:39:43.257Z,-0.13
2023-01-29T06:42:09.565Z,-0.06
2023-01-29T06:44:35.854Z,-0.16
2023-01-29T06:47:02.137Z,-0.13
2023-01-29T06:49:28.455Z,-0.15
2023-01-29T06:51:59.660Z,-0.10
2023-01-29T06:54:25.940Z,-0.08
2023-01-29T06:56:52.272Z,-0.11
2023-01-29T06:59:18.564Z,0.06
2023-01-29T07:01:44.921Z,-0.07
2023-01-29T07:04:11.304Z,0.05
2023-01-29T07:06:37.583Z,-0.04
2023-01-29T07:09:03.871Z,-0.09
2023-01-29T07:11:30.198Z,-0.03
2023-01-29T07:13:56.496Z,-0.01
2023-01-29T07:16:22.820Z,-0.08
2023-01-29T07:18:49.154Z,0.07
2023-01-29T07:21:15.440Z,-0.09
2023-01-29T07:23:41.725Z,-0.10
2023-01-29T07:26:08.056Z,-0.06
2023-01-29T07:28:34.355Z,-0.03
2023-01-29T07:31:00.677Z,-0.14
2023-01-29T07:33:26.997Z,-0.13
2023-01-29T07:35:53.301Z,-0.23
2023-01-29T07:38:19.593Z,-0.15
2023-01-29T07:40:45.930Z,-0.21
2023-01-29T07:43:12.215Z,-0.31
2023-01-29T07:45:38.583Z,-0.23
2023-01-29T07:48:05.009Z,-0.08
2023-01-29T07:50:31.308Z,-0.20
2023-01-29T07:52:57.608Z,-0.07
2023-01-29T07:55:23.912Z,-0.16
2023-01-29T07:57:50.201Z,-0.11
2023-01-29T08:00:16.719Z,-0.06
2023-01-29T08:02:43.172Z,0.01
2023-01-29T08:05:09.459Z,-0.17
2023-01-29T08:07:35.753Z,-0.15
2023-01-29T08:10:02.064Z,-0.14
2023-01-29T08:12:28.405Z,-0.11
2023-01-29T08:14:54.691Z,-0.09
2023-01-29T08:17:21.024Z,-0.05
2023-01-29T08:19:48.256Z,0.22
2023-01-29T08:22:14.619Z,0.20
2023-01-29T08:24:53.421Z,0.11
2023-01-29T08:27:26.232Z,0.06
2023-01-29T08:29:52.638Z,0.01
2023-01-29T08:32:19.150Z,-0.05
2023-01-29T08:34:45.482Z,-0.08
2023-01-29T08:37:11.795Z,0.17
2023-01-29T08:39:38.109Z,-0.08
2023-01-29T08:42:04.391Z,0.09
2023-01-29T08:44:30.734Z,0.22
2023-01-29T08:46:57.027Z,0.25
2023-01-29T08:49:23.317Z,0.14
2023-01-29T08:51:51.420Z,0.10
2023-01-29T08:54:17.733Z,0.18
2023-01-29T08:56:44.030Z,0.36
2023-01-29T08:59:10.326Z,0.29
2023-01-29T09:01:36.625Z,0.33
2023-01-29T09:04:02.912Z,0.34
2023-01-29T09:06:29.231Z,0.47
2023-01-29T09:08:55.522Z,0.57
2023-01-29T09:11:21.811Z,0.73
2023-01-29T09:13:48.119Z,0.52
2023-01-29T09:16:14.441Z,0.41
2023-01-29T09:18:40.742Z,0.59
2023-01-29T09:21:07.068Z,0.40
2023-01-29T09:23:33.374Z,0.50
2023-01-29T09:25:59.666Z,0.63
2023-01-29T09:28:25.971Z,0.58
2023-01-29T09:30:52.305Z,0.52
2023-01-29T09:33:18.669Z,0.71
2023-01-29T09:35:44.981Z,0.53
2023-01-29T09:38:11.280Z,0.82
2023-01-29T09:40:37.575Z,0.87
2023-01-29T09:43:03.893Z,0.54
2023-01-29T09:45:30.181Z,0.63
2023-01-29T09:47:56.470Z,0.68
2023-01-29T09:50:22.818Z,0.54
2023-01-29T09:52:49.116Z,0.57
2023-01-29T09:55:15.665Z,0.86
2023-01-29T09:57:42.202Z,0.74
2023-01-29T10:00:08.477Z,0.73
2023-01-29T10:02:34.768Z,0.54
2023-01-29T10:05:01.093Z,0.72
2023-01-29T10:07:27.396Z,0.76
2023-01-29T10:09:53.688Z,0.86
2023-01-29T10:12:20.011Z,0.91
2023-01-29T10:14:46.301Z,0.92
2023-01-29T10:17:12.616Z,0.80
2023-01-29T10:19:38.932Z,0.76
2023-01-29T10:22:05.223Z,0.98
2023-01-29T10:24:31.508Z,1.00
2023-01-29T10:26:57.809Z,1.02
2023-01-29T10:29:24.121Z,0.93
2023-01-29T10:31:50.491Z,1.35
2023-01-29T10:34:16.853Z,1.23
2023-01-29T10:36:43.157Z,1.35
2023-01-29T10:39:09.462Z,1.20
2023-01-29T10:41:35.775Z,1.24
2023-01-29T10:44:02.066Z,1.15
2023-01-29T10:46:28.366Z,1.40
2023-01-29T10:48:54.676Z,1.52
2023-01-29T10:51:20.978Z,1.00
2023-01-29T10:53:47.271Z,1.10
2023-01-29T10:56:22.160Z,0.83
2023-01-29T10:58:48.879Z,1.31
2023-01-29T11:01:15.212Z,1.68
2023-01-29T11:03:41.599Z,0.98
2023-01-29T11:06:07.901Z,1.05
2023-01-29T11:08:34.226Z,1.30
2023-01-29T11:11:00.526Z,1.40
2023-01-29T11:13:26.854Z,1.61
2023-01-29T11:15:53.167Z,1.43
2023-01-29T11:18:19.448Z,1.14
2023-01-29T11:20:45.745Z,1.29
2023-01-29T11:23:12.057Z,1.37
2023-01-29T11:25:38.378Z,1.44
2023-01-29T11:28:04.673Z,1.76
2023-01-29T11:30:30.987Z,1.80
2023-01-29T11:32:57.292Z,1.47
2023-01-29T11:35:23.575Z,1.47
2023-01-29T11:37:49.892Z,1.60
2023-01-29T11:40:16.463Z,1.54
2023-01-29T11:42:42.953Z,1.64
2023-01-29T11:45:09.258Z,1.84
2023-01-29T11:47:35.548Z,1.83
2023-01-29T11:50:01.843Z,1.68
2023-01-29T11:52:28.185Z,2.09
2023-01-29T11:54:54.483Z,2.36
2023-01-29T11:57:20.789Z,1.92
2023-01-29T11:59:47.148Z,2.51
2023-01-29T12:02:13.448Z,1.79
2023-01-29T12:04:39.746Z,1.72
2023-01-29T12:07:06.059Z,1.88
2023-01-29T12:09:32.440Z,2.21
2023-01-29T12:11:58.723Z,1.83
2023-01-29T12:14:25.038Z,2.14
2023-01-29T12:16:51.357Z,2.32
2023-01-29T12:19:17.662Z,2.46
2023-01-29T12:21:43.971Z,2.26
2023-01-29T12:24:10.272Z,2.15
2023-01-29T12:26:36.606Z,1.68
2023-01-29T12:29:02.930Z,2.16
2023-01-29T12:31:29.246Z,2.52
2023-01-29T12:33:55.597Z,2.26
2023-01-29T12:36:21.903Z,2.18
2023-01-29T12:38:48.198Z,2.21
2023-01-29T12:41:14.474Z,2.61
2023-01-29T12:43:40.788Z,2.70
2023-01-29T12:46:07.089Z,2.60
2023-01-29T12:48:33.376Z,2.54
2023-01-29T12:50:59.683Z,2.48
2023-01-29T12:53:25.974Z,2.80
2023-01-29T12:55:52.265Z,2.84
2023-01-29T12:58:18.681Z,3.06
2023-01-29T13:00:45.027Z,2.87
2023-01-29T13:03:11.441Z,3.08
2023-01-29T13:05:37.815Z,2.71
2023-01-29T13:08:04.113Z,2.88
2023-01-29T13:10:30.403Z,2.74
2023-01-29T13:12:56.702Z,2.59
2023-01-29T13:15:23.009Z,2.51
2023-01-29T13:17:49.304Z,2.46
2023-01-29T13:20:15.821Z,2.82
2023-01-29T13:22:42.219Z,3.23
2023-01-29T13:25:08.506Z,2.99
2023-01-29T13:27:34.814Z,2.63
2023-01-29T13:30:01.111Z,2.98
2023-01-29T13:32:27.406Z,3.48
2023-01-29T13:34:53.708Z,3.27
2023-01-29T13:37:19.998Z,2.74
2023-01-29T13:39:46.278Z,2.29
2023-01-29T13:42:13.011Z,2.81
2023-01-29T13:44:39.905Z,2.55
2023-01-29T13:47:06.220Z,2.55
2023-01-29T13:49:32.519Z,3.10
2023-01-29T13:51:58.803Z,3.28
2023-01-29T13:54:25.091Z,2.98
2023-01-29T13:56:51.398Z,3.31
2023-01-29T13:59:17.674Z,3.63
2023-01-29T14:01:43.993Z,3.71
2023-01-29T14:04:10.336Z,3.34
2023-01-29T14:06:36.623Z,3.23
2023-01-29T14:09:02.997Z,3.15
2023-01-29T14:11:29.347Z,3.45
2023-01-29T14:13:55.649Z,3.29
2023-01-29T14:16:21.969Z,2.27
2023-01-29T14:18:48.291Z,2.59
2023-01-29T14:21:14.584Z,2.57
2023-01-29T14:23:40.879Z,2.45
2023-01-29T14:26:07.185Z,3.11
2023-01-29T14:28:33.560Z,2.73
2023-01-29T14:30:59.961Z,3.36
2023-01-29T14:33:26.369Z,3.51
2023-01-29T14:35:52.654Z,3.11
2023-01-29T14:38:18.938Z,3.02
2023-01-29T14:40:45.248Z,3.35
2023-01-29T14:43:11.548Z,3.73
2023-01-29T14:45:37.847Z,3.76
2023-01-29T14:48:04.165Z,3.79
2023-01-29T14:50:30.458Z,3.31
2023-01-29T14:52:56.760Z,3.08
2023-01-29T14:55:23.068Z,3.46
2023-01-29T14:57:49.361Z,2.74
2023-01-29T15:00:15.661Z,2.88
2023-01-29T15:02:42.029Z,3.04
2023-01-29T15:05:08.378Z,2.98
2023-01-29T15:07:34.656Z,2.85
2023-01-29T15:10:20.912Z,2.95
2023-01-29T15:12:47.215Z,3.34
2023-01-29T15:15:13.568Z,3.63
2023-01-29T15:17:39.855Z,3.65
2023-01-29T15:20:06.137Z,3.28
2023-01-29T15:22:32.461Z,2.95
2023-01-29T15:24:58.765Z,3.19
2023-01-29T15:27:25.054Z,2.97
2023-01-29T15:29:51.356Z,3.02
2023-01-29T15:32:17.661Z,3.07
2023-01-29T15:34:43.956Z,3.39
2023-01-29T15:37:10.356Z,2.97
2023-01-29T15:39:36.678Z,3.56
2023-01-29T15:42:02.963Z,3.72
2023-01-29T15:44:29.275Z,3.62
2023-01-29T15:46:55.653Z,3.63
2023-01-29T15:49:21.937Z,3.10
2023-01-29T15:51:48.240Z,3.26
2023-01-29T15:54:15.771Z,3.15
2023-01-29T15:56:42.219Z,3.36
2023-01-29T15:59:09.777Z,3.50
2023-01-29T16:01:36.272Z,3.56
2023-01-29T16:04:02.794Z,3.38
2023-01-29T16:06:29.112Z,3.13
2023-01-29T16:08:55.428Z,3.24
2023-01-29T16:11:21.742Z,3.40
2023-01-29T16:13:48.049Z,3.55
2023-01-29T16:16:14.366Z,3.21
2023-01-29T16:18:47.736Z,3.30
2023-01-29T16:21:20.687Z,3.15
2023-01-29T16:23:46.980Z,3.35
2023-01-29T16:26:13.321Z,3.28
2023-01-29T16:28:39.676Z,3.52
2023-01-29T16:31:06.248Z,3.18
2023-01-29T16:33:32.634Z,3.22
2023-01-29T16:35:58.939Z,3.48
2023-01-29T16:38:25.390Z,3.25
2023-01-29T16:40:51.678Z,2.94
2023-01-29T16:43:17.982Z,2.78
2023-01-29T16:45:44.570Z,2.59
2023-01-29T16:48:10.858Z,2.78
2023-01-29T16:50:46.369Z,3.18
2023-01-29T16:53:20.479Z,3.07
2023-01-29T16:55:46.797Z,2.76
2023-01-29T16:58:13.107Z,2.84
2023-01-29T17:00:39.460Z,2.65
2023-01-29T17:03:05.869Z,2.66
2023-01-29T17:05:32.173Z,2.49
2023-01-29T17:07:58.478Z,2.62
2023-01-29T17:10:24.802Z,2.68
2023-01-29T17:12:51.093Z,2.88
2023-01-29T17:15:17.733Z,3.04
2023-01-29T17:17:44.327Z,2.45
2023-01-29T17:20:10.628Z,2.36
2023-01-29T17:22:36.926Z,2.54
2023-01-29T17:25:03.280Z,2.11
2023-01-29T17:27:29.577Z,1.97
2023-01-29T17:29:55.862Z,2.15
2023-01-29T17:32:22.169Z,2.26
2023-01-29T17:34:49.233Z,2.43
2023-01-29T17:37:15.535Z,2.18
2023-01-29T17:39:41.979Z,2.07
2023-01-29T17:42:08.280Z,2.12
2023-01-29T17:44:34.575Z,1.94
2023-01-29T17:47:00.884Z,2.54
2023-01-29T17:49:27.172Z,2.20
2023-01-29T17:51:53.459Z,1.88
2023-01-29T17:54:20.065Z,1.75
2023-01-29T17:56:46.368Z,1.77
2023-01-29T17:59:12.655Z,2.29
2023-01-29T18:01:38.976Z,2.46
2023-01-29T18:04:05.381Z,2.41
2023-01-29T18:06:31.753Z,1.90
2023-01-29T18:08:58.078Z,1.96
2023-01-29T18:11:26.685Z,2.22
2023-01-29T18:13:52.990Z,2.18
2023-01-29T18:16:19.314Z,2.44
2023-01-29T18:18:45.759Z,2.47
2023-01-29T18:21:12.054Z,2.67
2023-01-29T18:23:38.383Z,3.01
2023-01-29T18:26:04.673Z,2.65
2023-01-29T18:28:31.092Z,2.62
2023-01-29T18:30:57.469Z,2.84
2023-01-29T18:33:23.770Z,2.91
2023-01-29T18:35:50.120Z,2.59
2023-01-29T18:38:21.248Z,2.63
2023-01-29T18:40:47.532Z,2.58
2023-01-29T18:43:13.815Z,2.57
2023-01-29T18:45:40.132Z,2.23
2023-01-29T18:48:06.447Z,2.21
2023-01-29T18:50:32.764Z,2.22
2023-01-29T18:52:59.068Z,2.72
2023-01-29T18:55:28.100Z,2.39
2023-01-29T18:58:27.495Z,2.38
2023-01-29T19:00:40.696Z,2.54
2023-01-29T19:03:06.981Z,2.39
2023-01-29T19:05:33.276Z,2.17
2023-01-29T19:07:59.595Z,2.16
2023-01-29T19:10:25.884Z,2.18
2023-01-29T19:12:52.178Z,2.07
2023-01-29T19:15:18.747Z,2.22
2023-01-29T19:17:45.336Z,2.23
2023-01-29T19:20:11.660Z,2.35
2023-01-29T19:22:37.990Z,2.38
2023-01-29T19:25:04.272Z,2.01
2023-01-29T19:27:30.635Z,1.76
2023-01-29T19:29:56.964Z,1.66
2023-01-29T19:32:23.241Z,1.82
2023-01-29T19:34:49.518Z,1.50
2023-01-29T19:37:15.872Z,1.85
2023-01-29T19:39:42.159Z,2.19
2023-01-29T19:42:08.453Z,2.40
2023-01-29T19:44:34.760Z,2.29
2023-01-29T19:47:01.047Z,2.06
2023-01-29T19:49:28.705Z,1.84
2023-01-29T19:51:55.018Z,2.20
2023-01-29T19:54:21.301Z,2.53
2023-01-29T19:56:47.576Z,2.31
2023-01-29T19:59:13.884Z,2.53
2023-01-29T20:01:40.209Z,2.54
2023-01-29T20:04:06.628Z,2.33
2023-01-29T20:06:32.948Z,1.69
2023-01-29T20:08:59.225Z,1.71
2023-01-29T20:11:25.524Z,1.46
2023-01-29T20:13:51.829Z,2.01
2023-01-29T20:16:18.162Z,1.97
2023-01-29T20:18:44.474Z,2.13
2023-01-29T20:21:10.775Z,2.33
2023-01-29T20:23:38.778Z,2.19
2023-01-29T20:26:05.177Z,1.78
2023-01-29T20:28:31.491Z,1.23
2023-01-29T20:30:57.781Z,1.28
2023-01-29T20:33:24.108Z,1.66
2023-01-29T20:35:50.411Z,1.51
2023-01-29T20:38:16.711Z,1.61
2023-01-29T20:40:43.015Z,1.17
2023-01-29T20:43:09.372Z,1.31
2023-01-29T20:45:35.721Z,1.21
2023-01-29T20:48:02.036Z,1.42
2023-01-29T20:50:28.358Z,1.45
2023-01-29T20:52:54.641Z,1.78
2023-01-29T20:55:21.203Z,1.88
2023-01-29T20:58:06.210Z,1.58
2023-01-29T21:00:33.072Z,1.45
2023-01-29T21:02:59.434Z,1.49
2023-01-29T21:05:25.733Z,1.54
2023-01-29T21:07:52.046Z,1.64
2023-01-29T21:10:18.667Z,1.28
2023-01-29T21:12:45.110Z,1.22
2023-01-29T21:15:11.411Z,1.36
2023-01-29T21:17:37.722Z,1.59
2023-01-29T21:20:04.020Z,1.68
2023-01-29T21:22:30.299Z,1.70
2023-01-29T21:24:56.610Z,1.26
2023-01-29T21:27:22.892Z,1.26
2023-01-29T21:29:49.186Z,1.12
2023-01-29T21:32:15.525Z,0.87
2023-01-29T21:34:41.826Z,0.66
2023-01-29T21:37:08.188Z,0.94
2023-01-29T21:39:34.494Z,1.01
2023-01-29T21:42:00.792Z,0.81
2023-01-29T21:44:27.086Z,0.98
2023-01-29T21:46:53.454Z,0.91
2023-01-29T21:49:19.755Z,0.80
2023-01-29T21:51:47.214Z,0.55
2023-01-29T21:54:13.518Z,0.96
2023-01-29T21:56:39.811Z,1.04
2023-01-29T21:59:10.407Z,0.72
2023-01-29T22:01:38.765Z,0.63
2023-01-29T22:04:05.219Z,1.02
2023-01-29T22:06:31.507Z,0.81
2023-01-29T22:08:57.829Z,0.68
2023-01-29T22:11:24.205Z,0.67
2023-01-29T22:13:50.487Z,1.11
2023-01-29T22:16:16.796Z,0.96
2023-01-29T22:18:43.099Z,0.80
2023-01-29T22:21:09.395Z,0.76
2023-01-29T22:23:35.711Z,1.27
2023-01-29T22:26:02.007Z,0.84
2023-01-29T22:28:28.305Z,0.94
2023-01-29T22:30:54.649Z,1.27
2023-01-29T22:33:20.940Z,1.18
2023-01-29T22:35:47.232Z,1.07
2023-01-29T22:38:13.537Z,0.85
2023-01-29T22:40:39.810Z,0.95
2023-01-29T22:43:06.111Z,0.82
2023-01-29T22:45:32.411Z,1.06
2023-01-29T22:47:58.700Z,1.13
2023-01-29T22:50:24.997Z,1.18
2023-01-29T22:52:51.331Z,1.05
2023-01-29T22:55:17.610Z,0.88
2023-01-29T22:57:43.907Z,0.85
2023-01-29T23:00:10.235Z,0.73
2023-01-29T23:02:36.530Z,0.94
2023-01-29T23:05:02.820Z,0.79
2023-01-29T23:07:29.119Z,1.09
2023-01-29T23:09:55.415Z,0.65
2023-01-29T23:12:21.719Z,0.39
2023-01-29T23:14:48.023Z,0.39
2023-01-29T23:17:14.367Z,0.92
2023-01-29T23:19:40.648Z,0.85
2023-01-29T23:22:07.018Z,0.57
2023-01-29T23:24:33.376Z,0.53
2023-01-29T23:26:59.669Z,0.73
2023-01-29T23:29:25.967Z,0.69
2023-01-29T23:31:52.251Z,0.36
2023-01-29T23:34:24.358Z,0.47
2023-01-29T23:36:50.677Z,0.49
2023-01-29T23:39:16.972Z,0.52
2023-01-29T23:41:43.270Z,0.25
2023-01-29T23:44:09.568Z,0.60
2023-01-29T23:46:35.885Z,0.66
2023-01-29T23:49:02.197Z,0.57
2023-01-29T23:51:28.496Z,0.62
2023-01-29T23:53:54.784Z,0.52
2023-01-29T23:56:21.075Z,0.85
2023-01-29T23:58:47.424Z,0.61
